Time;durP1;ratioP1;P1;durP2;ratioP2;P2;SDS_P1;SDS_P2;PMS_P1;PMS_P2;Temp;Humidity;BMP_temperature;BMP_pressure;BME280_temperature;BME280_humidity;BME280_pressure;Samples;Min_cycle;Max_cycle;Signal;HPM_P1;HPM_P2
2022/10/09 00:01:30;;;;;;;8.53;5.17;;;10.80;90.20;;;13.87;53.24;98438.41;5026107;28;20049;-49
2022/10/09 00:03:59;;;;;;;11.50;5.05;;;10.60;90.70;;;13.82;53.20;98435.38;5025878;28;20054;-48
2022/10/09 00:06:31;;;;;;;9.90;4.63;;;10.60;93.10;;;13.77;53.68;98435.06;5025253;28;20370;-49
2022/10/09 00:09:01;;;;;;;6.73;4.63;;;10.50;94.40;;;13.72;53.76;98437.38;5024757;28;20056;-49
2022/10/09 00:11:31;;;;;;;8.73;4.57;;;10.50;95.50;;;13.70;53.70;98434.03;5026031;28;20271;-48
2022/10/09 00:14:00;;;;;;;7.00;4.27;;;10.50;95.70;;;13.65;53.40;98428.31;5025419;28;20348;-48
2022/10/09 00:16:29;;;;;;;8.80;5.37;;;10.50;95.50;;;13.64;53.35;98416.78;5024570;28;20058;-49
2022/10/09 00:18:57;;;;;;;6.63;5.13;;;10.50;95.70;;;13.65;53.52;98425.63;5024708;28;20056;-50
2022/10/09 00:21:32;;;;;;;5.80;4.20;;;10.50;95.20;;;13.63;53.45;98423.13;5024069;28;20248;-50
2022/10/09 00:24:02;;;;;;;9.30;4.87;;;10.50;94.70;;;13.63;53.39;98419.59;5024998;28;20046;-50
2022/10/09 00:26:31;;;;;;;7.73;5.07;;;10.50;94.60;;;13.57;53.50;98421.94;5024920;28;20054;-48
2022/10/09 00:28:59;;;;;;;8.80;4.10;;;10.40;94.10;;;13.55;53.46;98420.41;5024201;28;20056;-48
2022/10/09 00:31:28;;;;;;;9.63;4.07;;;10.40;93.80;;;13.54;53.11;98414.22;5024025;28;20050;-49
2022/10/09 00:33:55;;;;;;;7.47;4.30;;;10.40;93.20;;;13.54;53.25;98418.75;5024806;28;20045;-48
2022/10/09 00:36:25;;;;;;;6.40;4.50;;;10.40;93.10;;;13.53;53.30;98417.91;5024886;28;20285;-49
2022/10/09 00:38:54;;;;;;;10.17;4.70;;;10.40;93.30;;;13.51;53.09;98411.03;5023913;28;20046;-49
2022/10/09 00:41:30;;;;;;;7.13;4.67;;;10.40;93.20;;;13.52;53.55;98410.03;5024804;28;20045;-50
2022/10/09 00:44:23;;;;;;;9.73;5.20;;;10.40;93.40;;;13.48;53.14;98412.19;5025148;28;20050;-50
2022/10/09 00:46:51;;;;;;;9.80;5.30;;;10.40;93.30;;;13.46;53.21;98408.84;5023577;28;20046;-49
2022/10/09 00:49:30;;;;;;;7.23;4.67;;;10.30;93.60;;;13.43;53.63;98409.16;5025071;28;20052;-49
2022/10/09 00:52:03;;;;;;;6.97;4.57;;;10.30;94.10;;;13.41;53.87;98410.31;5024690;28;20056;-49
2022/10/09 00:54:36;;;;;;;12.03;4.53;;;10.30;95.00;;;13.40;53.57;98404.16;5023803;28;20060;-49
2022/10/09 00:57:04;;;;;;;8.00;4.33;;;10.30;95.50;;;13.39;53.75;98408.63;5023192;28;20370;-48
2022/10/09 00:59:32;;;;;;;7.90;5.07;;;10.30;95.60;;;13.38;53.68;98406.97;5024653;28;20046;-48
2022/10/09 01:01:59;;;;;;;12.37;5.63;;;10.30;95.30;;;13.37;53.84;98402.63;5025274;28;20056;-49
2022/10/09 01:04:27;;;;;;;7.33;4.70;;;10.30;95.10;;;13.36;53.87;98408.16;5024656;28;20052;-51
2022/10/09 01:07:39;;;;;;;12.10;5.47;;;10.30;94.50;;;13.31;53.81;98400.59;5024106;28;20052;-50
2022/10/09 01:10:31;;;;;;;7.70;4.83;;;10.20;95.60;;;13.25;53.71;98405.72;5024540;28;20054;-48
2022/10/09 01:13:59;;;;;;;10.70;5.03;;;10.10;97.40;;;13.17;54.01;98393.16;5024034;28;20046;-47
2022/10/09 01:17:03;;;;;;;10.93;4.53;;;10.00;99.90;;;13.18;54.11;98393.00;5031327;28;20072;-49
2022/10/09 01:20:05;;;;;;;7.07;5.20;;;10.00;99.90;;;13.15;54.12;98395.13;5022974;28;20050;-48
2022/10/09 01:23:00;;;;;;;5.43;4.50;;;10.00;99.90;;;13.10;54.25;98392.09;5024162;28;20042;-49
2022/10/09 01:25:42;;;;;;;9.77;4.60;;;9.90;99.90;;;13.07;53.96;98392.44;5024205;28;20218;-48
2022/10/09 01:28:12;;;;;;;7.87;4.90;;;9.80;99.90;;;13.03;53.98;98389.22;5024987;28;20050;-50
2022/10/09 01:30:41;;;;;;;8.67;5.00;;;9.90;99.90;;;13.04;54.24;98384.72;5022507;28;20326;-49
2022/10/09 01:33:10;;;;;;;5.43;4.03;;;9.90;99.90;;;13.06;54.18;98380.88;5022903;28;20343;-52
2022/10/09 01:35:39;;;;;;;8.93;5.43;;;9.90;99.90;;;13.06;53.90;98382.72;5023021;28;20046;-48
2022/10/09 01:38:07;;;;;;;7.20;5.00;;;9.90;99.60;;;13.05;53.88;98378.38;5024623;28;20050;-52
2022/10/09 01:40:35;;;;;;;9.00;5.00;;;9.90;99.30;;;13.06;53.84;98372.03;5022635;28;20320;-49
2022/10/09 01:43:04;;;;;;;7.77;4.93;;;10.00;98.60;;;13.06;53.77;98377.38;5022661;28;20051;-47
2022/10/09 01:45:42;;;;;;;6.40;4.43;;;10.00;98.00;;;13.05;53.61;98371.19;5022807;28;20058;-52
2022/10/09 01:48:40;;;;;;;4.90;4.40;;;9.90;96.90;;;13.03;53.66;98375.88;5023243;28;20050;-49
2022/10/09 01:51:08;;;;;;;7.83;4.43;;;10.00;97.00;;;13.05;53.60;98373.03;5022903;28;20046;-50
2022/10/09 01:53:38;;;;;;;10.07;4.67;;;9.90;96.30;;;13.00;53.60;98358.28;5023280;28;20042;-47
2022/10/09 01:56:18;;;;;;;7.10;4.50;;;9.90;96.30;;;12.98;53.55;98364.81;5021668;28;20048;-48
2022/10/09 01:58:59;;;;;;;10.90;5.47;;;9.80;97.20;;;12.92;53.56;98360.09;5022331;28;20050;-52
2022/10/09 02:01:35;;;;;;;9.07;5.53;;;9.70;98.20;;;12.88;54.02;98353.41;5022664;28;20249;-50
2022/10/09 02:04:11;;;;;;;8.83;6.17;;;9.70;99.20;;;12.84;53.96;98350.19;5022237;28;20048;-52
2022/10/09 02:06:40;;;;;;;8.30;5.20;;;9.60;99.90;;;12.81;54.16;98339.81;5022072;28;20046;-49
2022/10/09 02:09:14;;;;;;;10.27;6.73;;;9.60;99.90;;;12.82;54.31;98348.69;5022276;28;20052;-50
2022/10/09 02:11:49;;;;;;;7.40;5.22;;;9.70;99.90;;;12.82;54.33;98344.19;5023205;28;20049;-48
2022/10/09 02:14:17;;;;;;;8.40;5.30;;;9.70;99.90;;;12.82;54.00;98344.19;5022328;28;20052;-52
2022/10/09 02:16:49;;;;;;;7.63;5.17;;;9.60;99.30;;;12.80;54.13;98340.84;5023048;28;20074;-50
2022/10/09 02:19:43;;;;;;;7.13;5.50;;;9.70;99.70;;;12.78;53.96;98332.97;5023696;28;20060;-49
2022/10/09 02:22:27;;;;;;;7.70;4.80;;;9.70;99.70;;;12.78;54.24;98340.16;5022168;28;20224;-48
2022/10/09 02:24:58;;;;;;;9.60;6.03;;;9.60;99.30;;;12.75;54.07;98335.09;5021992;28;20063;-52
2022/10/09 02:27:27;;;;;;;8.03;5.33;;;9.50;99.90;;;12.73;54.43;98331.75;5022724;28;20251;-48
2022/10/09 02:29:56;;;;;;;7.20;5.27;;;9.60;99.90;;;12.70;54.17;98332.94;5021948;28;20218;-49
2022/10/09 02:32:24;;;;;;;7.77;5.10;;;9.60;99.90;;;12.69;54.06;98333.91;5021999;28;20041;-47
2022/10/09 02:34:52;;;;;;;11.63;5.60;;;9.60;99.90;;;12.67;54.03;98329.72;5023063;28;20042;-50
2022/10/09 02:37:20;;;;;;;11.50;5.90;;;9.50;99.90;;;12.67;54.51;98327.88;5022505;28;20275;-49
2022/10/09 02:39:48;;;;;;;8.03;5.63;;;9.50;99.90;;;12.66;54.24;98325.38;5022699;28;20045;-52
2022/10/09 02:42:16;;;;;;;10.40;6.30;;;9.50;99.90;;;12.63;54.75;98318.50;5023200;28;20340;-49
2022/10/09 02:44:43;;;;;;;9.37;5.73;;;9.50;99.90;;;12.59;54.55;98317.16;5022790;28;20050;-49
2022/10/09 02:47:11;;;;;;;7.83;5.50;;;9.50;99.90;;;12.59;54.49;98319.84;5023155;28;20054;-50
2022/10/09 02:49:39;;;;;;;8.40;5.87;;;9.40;99.90;;;12.58;54.75;98320.81;5022689;28;20048;-51
2022/10/09 02:52:07;;;;;;;9.60;5.40;;;9.40;99.90;;;12.58;54.81;98316.34;5022749;28;20045;-50
2022/10/09 02:54:34;;;;;;;10.30;5.07;;;9.50;99.90;;;12.59;54.71;98314.50;5022811;28;20052;-48
2022/10/09 02:57:02;;;;;;;7.17;4.77;;;9.50;99.90;;;12.58;54.83;98315.47;5022072;28;20056;-49
2022/10/09 02:59:31;;;;;;;9.77;5.10;;;9.50;99.90;;;12.55;54.67;98319.31;5022578;28;20052;-48
2022/10/09 03:01:58;;;;;;;8.17;4.83;;;9.40;99.90;;;12.56;54.76;98317.47;5022598;28;20052;-50
2022/10/09 03:04:26;;;;;;;7.40;5.00;;;9.50;99.90;;;12.56;54.57;98314.78;5022506;28;20367;-47
2022/10/09 03:06:54;;;;;;;7.47;5.60;;;9.50;99.90;;;12.55;54.25;98313.13;5022038;28;20356;-49
2022/10/09 03:09:22;;;;;;;5.90;4.37;;;9.50;99.90;;;12.55;54.38;98305.94;5022068;28;20244;-48
2022/10/09 03:11:50;;;;;;;8.17;4.90;;;9.50;99.90;;;12.53;54.26;98304.44;5022582;28;20264;-49
2022/10/09 03:14:18;;;;;;;7.33;4.93;;;9.40;99.60;;;12.51;54.14;98309.94;5022358;28;20049;-50
2022/10/09 03:16:45;;;;;;;7.33;4.70;;;9.40;99.60;;;12.49;54.46;98308.44;5023125;28;20057;-51
2022/10/09 03:19:13;;;;;;;7.77;4.60;;;9.40;99.90;;;12.46;53.98;98306.88;5018780;28;20216;-48
2022/10/09 03:21:41;;;;;;;6.40;4.53;;;9.30;99.90;;;12.45;54.58;98307.06;5022444;28;20366;-49
2022/10/09 03:24:09;;;;;;;8.10;4.67;;;9.30;99.90;;;12.43;54.39;98312.56;5022574;28;20045;-47
2022/10/09 03:26:37;;;;;;;7.80;5.20;;;9.30;99.90;;;12.38;54.28;98307.66;5022017;28;20052;-47
2022/10/09 03:29:04;;;;;;;8.13;5.20;;;9.30;99.90;;;12.38;54.43;98314.84;5037748;28;20053;-47
2022/10/09 03:31:32;;;;;;;9.07;4.60;;;9.20;99.90;;;12.32;54.43;98310.97;5022267;28;20050;-47
2022/10/09 03:34:18;;;;;;;7.03;5.10;;;9.10;99.90;;;12.29;54.71;98310.44;5023219;28;20054;-46
2022/10/09 03:36:46;;;;;;;8.50;4.97;;;9.10;99.90;;;12.26;54.55;98318.78;5021840;28;20057;-48
2022/10/09 03:39:13;;;;;;;7.63;4.50;;;9.10;99.90;;;12.22;54.65;98315.56;5022199;28;20060;-50
2022/10/09 03:41:41;;;;;;;7.57;4.70;;;9.10;99.90;;;12.23;55.07;98316.41;5022482;28;20261;-47
2022/10/09 03:44:09;;;;;;;6.13;4.27;;;9.10;99.90;;;12.24;54.86;98316.25;5022175;28;20056;-50
2022/10/09 03:46:37;;;;;;;8.33;5.60;;;9.20;99.90;;;12.24;54.78;98318.09;5021873;28;20042;-50
2022/10/09 03:49:04;;;;;;;7.17;4.50;;;9.20;99.90;;;12.24;55.00;98321.59;5022113;28;20046;-48
2022/10/09 03:51:32;;;;;;;6.20;4.40;;;9.20;99.90;;;12.24;55.06;98318.09;5022465;28;20271;-47
2022/10/09 03:54:00;;;;;;;7.87;4.73;;;9.20;99.90;;;12.24;54.90;98310.09;5022617;28;20062;-51
2022/10/09 03:56:28;;;;;;;5.80;4.43;;;9.20;99.90;;;12.26;55.40;98316.09;5021714;28;20057;-48
2022/10/09 03:58:56;;;;;;;6.83;4.53;;;9.30;99.90;;;12.30;54.46;98309.47;5021967;28;20045;-47
2022/10/09 04:01:23;;;;;;;5.40;4.50;;;9.30;99.90;;;12.28;54.62;98319.47;5021885;28;20042;-49
2022/10/09 04:03:51;;;;;;;7.53;4.90;;;9.20;99.90;;;12.26;54.89;98324.13;5021975;28;20041;-50
2022/10/09 04:06:19;;;;;;;8.00;4.97;;;9.10;99.90;;;12.25;54.37;98317.09;5021626;28;20085;-48
2022/10/09 04:08:47;;;;;;;7.77;4.83;;;9.10;99.90;;;12.21;54.97;98316.56;5021730;28;20054;-51
2022/10/09 04:11:15;;;;;;;7.63;5.07;;;9.10;99.90;;;12.20;54.76;98321.06;5022022;28;20045;-48
2022/10/09 04:13:43;;;;;;;6.23;4.57;;;9.10;99.90;;;12.18;54.30;98322.22;5021904;28;20042;-51
2022/10/09 04:16:11;;;;;;;5.67;4.23;;;9.00;99.90;;;12.16;54.80;98318.88;5021772;28;20052;-48
2022/10/09 04:18:42;;;;;;;6.40;5.03;;;9.00;99.90;;;12.12;54.36;98321.00;5021871;28;20042;-48
2022/10/09 04:21:11;;;;;;;8.17;5.07;;;8.90;99.90;;;12.10;54.66;98323.00;5025794;28;20045;-48
2022/10/09 04:23:39;;;;;;;7.23;4.53;;;9.00;99.90;;;12.10;54.62;98320.31;5025378;28;20044;-47
2022/10/09 04:26:10;;;;;;;6.97;5.07;;;8.90;99.90;;;12.11;55.04;98318.47;5025756;28;20046;-50
2022/10/09 04:28:38;;;;;;;11.03;7.47;;;9.00;99.90;;;12.09;55.10;98310.63;5023789;28;20042;-50
2022/10/09 04:31:06;;;;;;;17.93;11.60;;;9.00;99.90;;;12.12;54.66;98318.34;5025198;28;20082;-48
2022/10/09 04:33:34;;;;;;;19.63;10.03;;;9.10;99.90;;;12.10;54.84;98309.66;5025229;28;20240;-49
2022/10/09 04:36:02;;;;;;;10.80;6.40;;;9.00;99.90;;;12.11;55.09;98318.47;5023732;28;20050;-48
2022/10/09 04:38:30;;;;;;;9.23;6.63;;;9.00;99.90;;;12.09;54.96;98302.63;5024680;28;20045;-50
2022/10/09 04:41:04;;;;;;;12.40;6.83;;;8.90;99.90;;;12.08;55.05;98310.78;5024826;28;20045;-48
2022/10/09 04:43:33;;;;;;;11.73;7.75;;;8.90;99.90;;;12.07;55.19;98315.28;5025078;28;20053;-50
2022/10/09 04:46:12;;;;;;;12.80;7.37;;;8.90;99.90;;;12.06;54.98;98310.09;5024953;28;20056;-51
2022/10/09 04:48:42;;;;;;;15.20;8.30;;;8.90;99.90;;;12.05;55.17;98311.94;5024582;28;20042;-48
2022/10/09 04:51:10;;;;;;;15.40;9.23;;;8.90;99.90;;;12.06;54.93;98310.09;5024861;28;20250;-50
2022/10/09 04:53:39;;;;;;;12.77;7.87;;;8.90;99.90;;;12.05;55.55;98308.44;5024770;28;20046;-48
2022/10/09 04:56:17;;;;;;;15.47;9.93;;;8.90;99.90;;;12.04;55.05;98307.59;5024702;28;20055;-50
2022/10/09 04:58:46;;;;;;;12.97;9.50;;;8.90;99.90;;;12.01;55.23;98307.91;5024394;28;20053;-49
2022/10/09 05:01:19;;;;;;;13.30;8.80;;;8.90;99.90;;;11.98;55.66;98302.84;5024780;28;20239;-48
2022/10/09 05:03:48;;;;;;;13.65;9.02;;;8.80;99.90;;;11.97;55.49;98307.34;5024905;28;20049;-52
2022/10/09 05:06:17;;;;;;;14.17;8.17;;;8.80;99.90;;;11.95;55.61;98305.84;5024444;28;20046;-48
2022/10/09 05:08:46;;;;;;;11.00;7.03;;;8.70;99.90;;;11.92;55.50;98308.81;5024103;28;20046;-50
2022/10/09 05:11:22;;;;;;;12.37;6.80;;;8.70;99.90;;;11.88;54.93;98302.91;5023124;28;20282;-46
2022/10/09 05:13:54;;;;;;;8.57;6.20;;;8.70;99.90;;;11.87;54.89;98306.59;5024404;28;20348;-49
2022/10/09 05:16:26;;;;;;;8.10;5.90;;;8.70;99.90;;;11.86;54.92;98312.06;5024682;28;20060;-50
2022/10/09 05:18:57;;;;;;;9.70;6.03;;;8.70;99.90;;;11.84;54.81;98309.53;5024334;28;20336;-51
2022/10/09 05:21:27;;;;;;;6.30;5.23;;;8.70;99.90;;;11.83;54.86;98313.22;5022924;28;20042;-47
2022/10/09 05:23:55;;;;;;;7.30;6.00;;;8.70;99.90;;;11.82;55.32;98306.19;5024340;28;20045;-50
2022/10/09 05:26:25;;;;;;;8.30;5.03;;;8.70;99.90;;;11.82;55.32;98317.72;5022554;28;20050;-49
2022/10/09 05:28:53;;;;;;;10.20;5.40;;;8.70;99.90;;;11.82;54.70;98311.53;5024067;28;20048;-52
2022/10/09 05:31:25;;;;;;;8.43;5.60;;;8.70;99.90;;;11.80;55.02;98306.34;5039194;28;20042;-49
2022/10/09 05:33:57;;;;;;;7.83;5.43;;;8.70;99.90;;;11.79;54.66;98303.84;5024054;28;20057;-47
2022/10/09 05:36:24;;;;;;;7.30;5.40;;;8.70;99.90;;;11.77;55.15;98306.66;5023949;28;20052;-48
2022/10/09 05:38:52;;;;;;;7.87;5.23;;;8.70;99.90;;;11.76;55.04;98304.13;5023738;28;20048;-50
2022/10/09 05:41:20;;;;;;;10.87;5.80;;;8.60;99.90;;;11.74;54.64;98298.94;5023798;28;20050;-53
2022/10/09 05:43:49;;;;;;;8.97;5.50;;;8.60;99.90;;;11.70;55.01;98299.41;5023655;28;20051;-51
2022/10/09 05:46:19;;;;;;;13.27;6.37;;;8.60;99.90;;;11.69;55.12;98293.25;5023683;28;20056;-51
2022/10/09 05:48:53;;;;;;;11.03;7.17;;;8.50;99.90;;;11.69;54.83;98303.06;5023655;28;20355;-50
2022/10/09 05:51:24;;;;;;;9.00;7.17;;;8.50;99.90;;;11.68;55.42;98302.22;5022701;28;20077;-48
2022/10/09 05:53:52;;;;;;;10.33;6.90;;;8.50;99.90;;;11.72;54.93;98305.44;5023587;28;20049;-50
2022/10/09 05:56:33;;;;;;;10.47;5.93;;;8.60;99.90;;;11.71;55.65;98301.06;5023636;28;20046;-52
2022/10/09 05:59:05;;;;;;;7.30;5.43;;;8.50;99.90;;;11.68;55.63;98304.06;5023865;28;20050;-51
2022/10/09 06:01:39;;;;;;;10.57;6.63;;;8.50;99.90;;;11.64;55.25;98303.53;5023490;28;20049;-50
2022/10/09 06:04:16;;;;;;;9.53;7.07;;;8.40;99.90;;;11.63;55.04;98301.84;5023524;28;20052;-47
2022/10/09 06:06:47;;;;;;;11.07;6.43;;;8.40;99.90;;;11.62;55.23;98298.34;5022926;28;20249;-51
2022/10/09 06:09:18;;;;;;;12.67;7.27;;;8.40;99.90;;;11.61;55.13;98296.69;5024199;28;20348;-51
2022/10/09 06:11:46;;;;;;;9.53;6.00;;;8.50;99.90;;;11.63;55.07;98302.69;5026348;28;20060;-52
2022/10/09 06:14:14;;;;;;;9.80;6.70;;;8.50;99.90;;;11.66;55.42;98303.38;5063406;28;20044;-48
2022/10/09 06:16:44;;;;;;;9.33;6.13;;;8.60;99.90;;;11.66;55.14;98304.22;5061561;28;20339;-48
2022/10/09 06:19:16;;;;;;;12.93;9.40;;;8.60;99.90;;;11.66;55.62;98303.38;5061040;28;20051;-48
2022/10/09 06:21:44;;;;;;;10.10;6.77;;;8.60;99.90;;;11.68;55.62;98301.41;5061807;28;20347;-50
2022/10/09 06:24:24;;;;;;;12.60;9.17;;;8.60;99.90;;;11.73;55.63;98307.09;5061908;28;20053;-49
2022/10/09 06:26:57;;;;;;;12.30;7.53;;;8.70;99.90;;;11.78;55.23;98307.50;5061325;28;20255;-50
2022/10/09 06:29:25;;;;;;;11.57;7.90;;;8.70;99.90;;;11.82;55.63;98311.53;5061801;28;20052;-49
2022/10/09 06:31:53;;;;;;;12.17;6.00;;;8.80;99.90;;;11.83;55.61;98310.56;5061359;28;20059;-52
2022/10/09 06:34:21;;;;;;;9.23;6.00;;;8.80;99.90;;;11.86;55.80;98314.72;5060456;28;20063;-48
2022/10/09 06:36:49;;;;;;;8.17;5.63;;;8.90;99.90;;;11.91;56.22;98312.47;5060932;28;20048;-50
2022/10/09 06:39:17;;;;;;;7.70;5.10;;;8.90;99.90;;;11.92;55.94;98317.66;5061570;28;20044;-52
2022/10/09 06:41:45;;;;;;;8.13;5.33;;;8.90;99.90;;;11.97;56.16;98318.03;5060805;28;20045;-52
2022/10/09 06:44:31;;;;;;;7.07;5.07;;;9.00;99.90;;;12.01;56.27;98313.22;5065219;28;20239;-53
2022/10/09 06:46:59;;;;;;;7.47;4.30;;;9.00;99.90;;;12.05;56.40;98311.94;5061026;28;20055;-49
2022/10/09 06:49:27;;;;;;;6.17;4.73;;;9.10;99.90;;;12.10;56.62;98320.31;5062067;28;20045;-53
2022/10/09 06:51:55;;;;;;;7.63;5.23;;;9.10;99.90;;;12.11;56.61;98319.31;5061242;28;20231;-50
2022/10/09 06:54:22;;;;;;;6.43;4.87;;;9.20;99.90;;;12.16;56.36;98324.19;5061627;28;20045;-49
2022/10/09 06:56:53;;;;;;;6.87;4.93;;;9.20;99.90;;;12.20;56.91;98326.41;5061130;28;20047;-48
2022/10/09 06:59:21;;;;;;;8.60;5.80;;;9.20;99.90;;;12.24;56.82;98318.09;5060902;28;20045;-49
2022/10/09 07:01:49;;;;;;;10.23;6.60;;;9.30;99.90;;;12.27;56.63;98323.97;5061209;28;20049;-53
2022/10/09 07:04:17;;;;;;;10.67;6.53;;;9.40;99.90;;;12.31;56.50;98321.78;5061041;28;20041;-49
2022/10/09 07:06:46;;;;;;;10.53;6.67;;;9.40;99.90;;;12.34;56.76;98321.50;5060917;28;20048;-50
2022/10/09 07:09:15;;;;;;;11.77;6.67;;;9.40;99.90;;;12.39;56.51;98329.88;5061143;28;20045;-50
2022/10/09 07:11:47;;;;;;;10.90;8.07;;;9.40;99.90;;;12.44;56.47;98332.06;5059821;28;20061;-50
2022/10/09 07:14:16;;;;;;;11.02;7.05;;;9.40;99.90;;;12.46;56.57;98317.56;5061258;28;20044;-49
2022/10/09 07:16:47;;;;;;;7.47;6.17;;;9.40;99.90;;;12.49;56.58;98327.13;5060725;28;20045;-50
2022/10/09 07:19:17;;;;;;;10.83;6.77;;;9.50;99.90;;;12.52;56.79;98324.97;5061285;28;20238;-48
2022/10/09 07:21:48;;;;;;;9.80;5.43;;;9.60;99.90;;;12.54;56.34;98331.00;5061410;28;20074;-53
2022/10/09 07:24:19;;;;;;;6.90;5.20;;;9.60;99.90;;;12.58;56.80;98329.69;5060995;28;20048;-51
2022/10/09 07:26:48;;;;;;;8.93;6.00;;;9.60;99.90;;;12.63;56.84;98325.69;5060568;28;20045;-50
2022/10/09 07:29:17;;;;;;;11.53;5.83;;;9.60;99.90;;;12.65;56.85;98327.22;5061074;28;20377;-51
2022/10/09 07:31:46;;;;;;;8.50;6.30;;;9.70;99.90;;;12.68;56.60;98329.56;5061355;28;20049;-51
2022/10/09 07:34:14;;;;;;;8.13;5.03;;;9.80;99.90;;;12.72;56.69;98332.78;5061288;28;20208;-49
2022/10/09 07:36:42;;;;;;;7.77;5.30;;;9.80;99.90;;;12.75;57.00;98332.44;5060714;28;20079;-52
2022/10/09 07:39:10;;;;;;;8.80;5.20;;;9.80;99.90;;;12.75;57.06;98330.59;5060864;28;20068;-49
2022/10/09 07:41:38;;;;;;;7.27;5.00;;;9.80;99.90;;;12.78;57.19;98329.47;5060985;28;20055;-52
2022/10/09 07:44:05;;;;;;;10.63;6.33;;;9.90;99.90;;;12.80;57.14;98330.97;5060067;28;20052;-51
2022/10/09 07:46:33;;;;;;;6.90;5.57;;;9.90;99.90;;;12.86;57.05;98328.66;5060611;28;20067;-50
2022/10/09 07:49:02;;;;;;;11.03;6.70;;;9.90;99.90;;;12.90;56.78;98324.69;5060422;28;20246;-49
2022/10/09 07:51:31;;;;;;;9.20;6.33;;;10.00;99.90;;;12.92;56.98;98325.34;5061095;28;20051;-49
2022/10/09 07:54:00;;;;;;;9.50;6.60;;;10.10;99.90;;;12.97;56.67;98323.06;5061705;28;20055;-53
2022/10/09 07:56:32;;;;;;;11.37;6.57;;;10.10;99.90;;;13.02;56.89;98318.03;5064286;28;20065;-51
2022/10/09 07:59:12;;;;;;;10.00;5.50;;;10.10;99.90;;;13.08;56.84;98319.25;5064772;28;20051;-48
2022/10/09 08:01:40;;;;;;;8.73;5.70;;;10.20;99.90;;;13.11;56.80;98313.59;5064673;28;20045;-48
2022/10/09 08:04:08;;;;;;;7.97;5.30;;;10.20;99.90;;;13.15;56.63;98317.63;5064259;28;20244;-48
2022/10/09 08:06:37;;;;;;;8.60;6.07;;;10.30;99.90;;;13.15;56.47;98313.09;5064348;28;20052;-50
2022/10/09 08:09:06;;;;;;;10.53;5.37;;;10.30;99.90;;;13.21;56.48;98319.63;5065307;28;20369;-50
2022/10/09 08:11:34;;;;;;;9.73;5.70;;;10.30;99.90;;;13.23;56.47;98314.97;5065179;28;20053;-50
2022/10/09 08:14:02;;;;;;;7.97;5.37;;;10.40;99.90;;;13.26;56.63;98313.78;5065436;28;20055;-52
2022/10/09 08:16:31;;;;;;;8.50;4.93;;;10.40;99.90;;;13.28;56.42;98317.13;5064867;28;20059;-49
2022/10/09 08:19:00;;;;;;;7.67;5.50;;;10.40;99.90;;;13.32;56.36;98316.69;5064688;28;20055;-51
2022/10/09 08:21:29;;;;;;;13.03;6.97;;;10.50;99.90;;;13.31;56.64;98312.34;5065261;28;20051;-53
2022/10/09 08:23:58;;;;;;;7.47;5.27;;;10.50;99.90;;;13.36;56.73;98303.84;5065268;28;20347;-48
2022/10/09 08:26:30;;;;;;;7.87;4.80;;;10.60;99.90;;;13.44;56.65;98305.72;5064703;28;20087;-52
2022/10/09 08:29:00;;;;;;;10.33;5.60;;;10.70;99.90;;;13.51;56.70;98312.06;5046770;28;20049;-51
2022/10/09 08:31:30;;;;;;;10.30;5.30;;;10.80;99.90;;;13.55;56.32;98311.59;5065034;28;20044;-50
2022/10/09 08:34:02;;;;;;;7.13;4.27;;;10.80;99.90;;;13.60;56.26;98308.41;5064693;28;20049;-51
2022/10/09 08:36:31;;;;;;;7.80;5.13;;;10.80;99.90;;;13.66;56.26;98307.75;5064516;28;20071;-52
2022/10/09 08:38:59;;;;;;;7.28;5.20;;;10.80;99.90;;;13.72;56.17;98306.25;5055847;28;20080;-50
2022/10/09 08:41:42;;;;;;;6.73;4.73;;;10.90;99.90;;;13.76;56.22;98308.44;5035077;28;20054;-53
2022/10/09 08:44:39;;;;;;;10.60;5.60;;;11.00;99.90;;;13.76;56.44;98302.25;5040059;28;20041;-51
2022/10/09 08:47:22;;;;;;;8.33;4.93;;;11.10;99.90;;;13.85;56.21;98303.94;5038169;28;20255;-48
2022/10/09 08:50:09;;;;;;;6.90;5.88;;;11.10;99.90;;;13.90;56.35;98303.41;5043763;28;20235;-50
2022/10/09 08:53:01;;;;;;;6.20;4.73;;;11.20;99.90;;;13.95;56.39;98301.09;5044654;28;20045;-50
2022/10/09 08:55:57;;;;;;;10.10;5.27;;;11.20;99.90;;;13.99;56.20;98303.25;5044784;28;20046;-53
2022/10/09 08:58:31;;;;;;;9.33;5.63;;;11.20;99.90;;;14.06;56.34;98303.44;5041316;28;20042;-53
2022/10/09 09:01:26;;;;;;;8.35;4.32;;;11.30;99.90;;;14.13;56.13;98296.41;5043459;28;20051;-50
2022/10/09 09:04:21;;;;;;;6.47;4.40;;;11.30;99.90;;;14.22;56.15;98301.75;5043044;28;20245;-50
2022/10/09 09:07:37;;;;;;;9.43;5.17;;;11.40;99.90;;;14.24;56.11;98294.41;5042879;28;20046;-51
2022/10/09 09:10:34;;;;;;;9.67;5.17;;;11.60;99.90;;;14.35;56.02;98283.34;5043299;28;20041;-51
2022/10/09 09:13:36;;;;;;;5.45;4.03;;;11.60;99.90;;;14.39;55.41;98290.03;5041995;28;20049;-51
2022/10/09 09:16:41;;;;;;;13.38;4.97;;;11.70;99.60;;;14.46;55.41;98287.50;5041963;28;20068;-49
2022/10/09 09:19:54;;;;;;;6.65;3.88;;;11.80;98.70;;;14.52;55.37;98279.63;5034188;28;20048;-49
2022/10/09 09:22:26;;;;;;;4.88;3.75;;;11.80;98.80;;;14.63;54.05;98282.97;5033201;28;20048;-50
2022/10/09 09:24:56;;;;;;;9.63;3.63;;;11.90;96.10;;;14.64;54.05;98281.97;5038348;28;20051;-53
2022/10/09 09:27:43;;;;;;;4.93;3.70;;;12.00;94.50;;;14.69;54.18;98276.94;5041325;28;20041;-51
2022/10/09 09:30:11;;;;;;;4.55;3.45;;;12.10;92.90;;;14.76;53.54;98275.25;5043973;28;20052;-52
2022/10/09 09:32:49;;;;;;;5.15;3.67;;;12.20;93.10;;;14.84;53.64;98266.34;5043970;28;20049;-53
2022/10/09 09:35:41;;;;;;;12.60;3.78;;;12.20;93.20;;;14.92;53.79;98266.28;5043949;28;20243;-52
2022/10/09 09:38:09;;;;;;;4.60;3.42;;;12.30;92.20;;;14.99;52.80;98269.97;5041317;28;20243;-51
2022/10/09 09:40:37;;;;;;;6.50;3.30;;;12.30;91.00;;;15.02;52.77;98261.56;5043833;28;20351;-53
2022/10/09 09:43:22;;;;;;;8.63;3.22;;;12.40;90.50;;;15.09;52.92;98259.03;5042533;28;20055;-52
2022/10/09 09:45:58;;;;;;;4.43;2.78;;;12.50;89.50;;;15.19;52.91;98261.50;5043508;28;20214;-52
2022/10/09 09:48:36;;;;;;;5.70;3.05;;;12.50;89.40;;;15.24;52.33;98254.59;5042015;28;20045;-50
2022/10/09 09:51:13;;;;;;;5.75;3.35;;;12.50;87.60;;;15.28;52.03;98249.72;5043607;28;20045;-50
2022/10/09 09:54:05;;;;;;;5.95;3.47;;;12.70;86.50;;;15.35;52.15;98248.84;5042556;28;20045;-52
2022/10/09 09:56:42;;;;;;;3.95;2.80;;;12.70;86.50;;;15.42;51.63;98242.75;5042166;28;20083;-50
2022/10/09 09:59:36;;;;;;;4.63;2.80;;;12.70;84.80;;;15.46;51.49;98233.34;5042105;28;20247;-50
2022/10/09 10:02:21;;;;;;;7.85;3.72;;;12.80;84.70;;;15.54;51.47;98236.78;5043340;28;20056;-52
2022/10/09 10:05:13;;;;;;;6.18;2.70;;;12.90;83.20;;;15.60;51.28;98235.22;5042174;28;20059;-49
2022/10/09 10:07:41;;;;;;;3.40;2.55;;;12.90;83.80;;;15.67;50.75;98224.63;5042917;28;20051;-50
2022/10/09 10:10:08;;;;;;;6.05;2.88;;;13.00;82.70;;;15.69;50.43;98223.44;5042364;28;20049;-54
2022/10/09 10:12:54;;;;;;;5.72;2.70;;;13.00;81.60;;;15.76;50.76;98228.97;5043499;28;20255;-50
2022/10/09 10:15:31;;;;;;;4.10;2.45;;;13.10;80.60;;;15.86;50.18;98226.84;5041812;28;20069;-51
2022/10/09 10:18:06;;;;;;;5.88;2.90;;;13.30;80.10;;;15.91;50.44;98216.38;5040612;28;20049;-50
2022/10/09 10:20:47;;;;;;;4.93;3.00;;;13.30;80.20;;;15.99;50.17;98214.66;5042002;28;20063;-52
2022/10/09 10:23:38;;;;;;;3.80;2.58;;;13.40;78.10;;;16.04;50.21;98204.22;5043291;28;20252;-52
2022/10/09 10:26:31;;;;;;;3.53;2.50;;;13.40;77.70;;;16.09;50.04;98201.78;5043027;28;20357;-51
2022/10/09 10:29:04;;;;;;;3.70;2.30;;;13.50;79.00;;;16.15;49.80;98201.09;5041866;28;20045;-51
2022/10/09 10:32:03;;;;;;;4.88;2.55;;;13.50;78.10;;;16.22;50.13;98195.81;5043416;28;20046;-49
2022/10/09 10:34:55;;;;;;;5.40;2.35;;;13.60;76.30;;;16.29;49.27;98192.19;5043361;28;20053;-50
2022/10/09 10:37:30;;;;;;;5.85;3.58;;;13.70;75.20;;;16.34;49.08;98197.88;5041480;28;20045;-50
2022/10/09 10:40:13;;;;;;;4.25;2.75;;;13.70;75.60;;;16.39;48.88;98183.84;5041715;28;20061;-51
2022/10/09 10:43:09;;;;;;;5.07;2.15;;;13.80;74.00;;;16.49;49.12;98184.41;5043427;28;20059;-49
2022/10/09 10:45:42;;;;;;;4.50;2.25;;;13.90;75.60;;;16.52;48.49;98178.69;5042952;28;20045;-47
2022/10/09 10:48:19;;;;;;;;;;;14.00;74.80;;;16.68;49.22;98176.81;5041217;28;20051;-49
2022/10/09 10:51:05;;;;;;;6.70;3.15;;;14.00;71.80;;;16.68;48.52;98169.56;5042660;28;19917;-50